Nearby METAR Reports

 

KMMK - Meriden, Connecticut, USA
Distance from station: SSE 6mi, 10km
Updated: Mon, 10-25-2021 2:53pm EDT
Overcast
Overcast
 Wind from NNE
Wind: NNE 7 mph , 11 km/h
Temperature: 55°F , 13°C
Dew Point: 52°F , 11°C
Humidity: 88%
Barometer: 29.93 inHg , 1013.5 hPa
Clouds: Overcast
Visibility: 7 miles , 11 km
Cloud details: Overcast 400 ft
2021/10/25 18:53 KMMK 251853Z AUTO 02006KT 7SM OVC004 13/11 A2993 RMK AO2 SLP133 T01280106
KHFD - Hartford/Brainar, Connecticut, USA
Distance from station: NE 15mi, 25km
Updated: Mon, 10-25-2021 3:12pm EDT
Mist, Overcast
Mist, Overcast
 Wind from NNE
Wind: NNE 8 mph , 13 km/h
Temperature: 54°F , 12°C
Dew Point: 52°F , 11°C
Humidity: 94%
Barometer: 29.93 inHg , 1013.5 hPa
Summary: Mist
Clouds: Overcast
Visibility: 3 miles , 5 km
Cloud details: Overcast 300 ft
2021/10/25 19:12 KHFD 251912Z 03007KT 3SM BR OVC003 12/11 A2993 RMK AO2 T01220106
 
KOXC - Oxford/Waterbury, Connecticut, USA
Distance from station: SW 16mi, 25km
Updated: Mon, 10-25-2021 3:17pm EDT
Mist, Overcast
Mist, Overcast
 Wind from ENE
Wind: ENE 12 mph , 19 km/h
Temperature: 57°F , 14°C
Dew Point: 55°F , 13°C
Humidity: 94%
Barometer: 29.91 inHg , 1012.9 hPa
Summary: Mist
Clouds: Overcast
Visibility: 6 miles , 10 km
Cloud details: Mostly cloudy 400 ft
Overcast 1600 ft
2021/10/25 19:17 KOXC 251917Z 07010KT 6SM BR BKN004 OVC016 14/13 A2991 RMK AO2 P0001
KHVN - New Haven/Tweed, Connecticut, USA
Distance from station: S 23mi, 37km
Updated: Mon, 10-25-2021 2:53pm EDT
Partly cloudy
Partly cloudy
 Wind from S
Wind: S 7 mph , 11 km/h
Temperature: 72°F , 22°C
Dew Point: 66°F , 19°C
Humidity: 83%
Barometer: 29.89 inHg , 1012.2 hPa
Clouds: Partly cloudy
Visibility: 10 miles , 16 km
Cloud details: Partly cloudy 3300 ft
2021/10/25 18:53 KHVN 251853Z 17006KT 10SM SCT033 22/19 A2989 RMK AO2 SLP121 T02220189
 
KSNC - Chester, Connecticut, USA
Distance from station: SE 25mi, 40km
Updated: Mon, 10-25-2021 3:15pm EDT
Partly cloudy
Partly cloudy
 Wind from NE
Wind: NE 8 mph , 13 km/h
Temperature: 72°F , 22°C
Dew Point: 64°F , 18°C
Humidity: 78%
Barometer: 29.91 inHg , 1012.9 hPa
Clouds: Partly cloudy
Visibility: 10 miles , 16 km
Cloud details: Partly cloudy 1800 ft
Partly cloudy 8000 ft
2021/10/25 19:15 KSNC 251915Z AUTO 04007KT 360V080 10SM SCT018 SCT080 22/18 A2991 RMK AO2
KBDL - Windsor Locks, Connecticut, USA
Distance from station: NNE 25mi, 41km
Updated: Mon, 10-25-2021 2:51pm EDT
Light drizzle, Mist, Overcast
Light drizzle, Mist, Overcast
 Wind from NNE
Wind: NNE 8 mph , 13 km/h
Temperature: 52°F , 11°C
Dew Point: 52°F , 11°C
Humidity: 100%
Barometer: 29.95 inHg , 1014.2 hPa
Summary: Light drizzle, Mist
Clouds: Overcast
Visibility: 1 mile , 2 km
Cloud details: Overcast 300 ft
2021/10/25 18:51 KBDL 251851Z 02007KT 1SM R06/P6000FT -DZ BR OVC003 11/11 A2995 RMK AO2 SFC VIS 2 1/2 SLP141 P0000 T01110111
 
KBDR - Bridgeport, Connecticut, USA
Distance from station: SSW 33mi, 52km
Updated: Mon, 10-25-2021 2:52pm EDT
Clear
Clear
 Wind from S
Wind: S 9 mph , 15 km/h
Temperature: 70°F , 21°C
Dew Point: 63°F , 17°C
Humidity: 78%
Barometer: 29.88 inHg , 1011.9 hPa
Clouds: Clear
Visibility: 10 miles , 16 km
2021/10/25 18:52 KBDR 251852Z 18008KT 10SM CLR 21/17 A2988 RMK AO2 SLP119 T02110172
KDXR - Danbury, Connecticut, USA
Distance from station: WSW 35mi, 56km
Updated: Mon, 10-25-2021 2:53pm EDT
Few Clouds
Few Clouds
 Wind from S
Wind: S 7 mph , 11 km/h
Temperature: 72°F , 22°C
Dew Point: 61°F , 16°C
Humidity: 69%
Barometer: 29.89 inHg , 1012.2 hPa
Clouds: Few Clouds
Visibility: 10 miles , 16 km
Cloud details: Few Clouds 2300 ft
Few Clouds 2900 ft
2021/10/25 18:53 KDXR 251853Z 17006KT 10SM FEW023 FEW029 22/16 A2989 RMK AO2 SLP121 T02170161
 
KIJD - Willimantic, Connecticut, USA
Distance from station: ENE 38mi, 61km
Updated: Mon, 10-25-2021 2:52pm EDT
Overcast
Overcast
 Wind from NNE
Wind: NNE 9 mph , 15 km/h
Temperature: 57°F , 14°C
Dew Point: 54°F , 12°C
Humidity: 88%
Barometer: 29.94 inHg , 1013.9 hPa
Clouds: Overcast
Visibility: 10 miles , 16 km
Cloud details: Overcast 600 ft
2021/10/25 18:52 KIJD 251852Z AUTO 03008KT 10SM OVC006 14/12 A2994 RMK AO2 SLP139 T01390122
KBAF - Westfield, Massachusetts, USA
Distance from station: NNE 40mi, 65km
Updated: Mon, 10-25-2021 2:53pm EDT
Mist, Overcast
Mist, Overcast
 Wind from N
Wind: N 10 mph , 17 km/h
Temperature: 52°F , 11°C
Dew Point: 48°F , 9°C
Humidity: 88%
Barometer: 29.95 inHg , 1014.2 hPa
Summary: Mist
Clouds: Overcast
Visibility: 2 miles , 3 km
Cloud details: Overcast 400 ft
2021/10/25 18:53 KBAF 251853Z 36009KT 2SM BR OVC004 11/09 A2995 RMK AO2 SLP145 T01060094
 
KCEF - Chicopee/Westove, Massachusetts, USA
Distance from station: NNE 46mi, 73km
Updated: Mon, 10-25-2021 3:16pm EDT
Light drizzle, Mist, Overcast
Light drizzle, Mist, Overcast
 Wind from ENE
Wind: ENE 7 mph , 11 km/h
Temperature: 52°F , 11°C
Dew Point: 52°F , 11°C
Humidity: 100%
Barometer: 29.95 inHg , 1014.2 hPa
Summary: Light drizzle, Mist
Clouds: Overcast
Visibility: 3 miles , 5 km
Cloud details: Overcast 600 ft
2021/10/25 19:16 KCEF 251916Z 07006KT 3SM -DZ BR OVC006 11/11 A2995 RMK AO2A SLP149
KGON - Groton/New Londo, Connecticut, USA
Distance from station: ESE 47mi, 76km
Updated: Mon, 10-25-2021 2:56pm EDT
Few Clouds
Few Clouds
 Wind from S
Wind: S 7 mph , 11 km/h
Temperature: 68°F , 20°C
Dew Point: 64°F , 18°C
Humidity: 88%
Barometer: 29.91 inHg , 1012.9 hPa
Clouds: Few Clouds
Visibility: 10 miles , 16 km
Cloud details: Few Clouds 1500 ft
2021/10/25 18:56 KGON 251856Z 17006KT 10SM FEW015 20/18 A2991 RMK AO2 SLP128 T02000178